createdAt,value
2023-02-08T00:02:49.482Z,10.95
2023-02-08T00:05:18.355Z,12.77
2023-02-08T00:10:31.125Z,10.38
2023-02-08T00:13:00.056Z,7.78
2023-02-08T00:15:29.790Z,10.07
2023-02-08T00:17:57.143Z,9.00
2023-02-08T00:20:24.740Z,9.70
2023-02-08T00:22:53.470Z,10.38
2023-02-08T00:25:20.879Z,9.45
2023-02-08T00:27:48.053Z,8.35
2023-02-08T00:30:15.119Z,9.98
2023-02-08T00:32:42.140Z,9.73
2023-02-08T00:35:09.305Z,11.15
2023-02-08T00:37:36.299Z,12.52
2023-02-08T00:40:05.924Z,12.98
2023-02-08T00:42:33.350Z,7.85
2023-02-08T00:45:00.464Z,10.40
2023-02-08T00:47:27.486Z,10.25
2023-02-08T00:49:54.671Z,10.50
2023-02-08T00:52:21.989Z,8.70
2023-02-08T00:54:49.209Z,8.88
2023-02-08T00:57:16.209Z,8.88
2023-02-08T00:59:43.394Z,10.23
2023-02-08T01:02:11.817Z,10.85
2023-02-08T01:04:39.458Z,14.95
2023-02-08T01:07:08.149Z,13.70
2023-02-08T01:09:35.823Z,12.88
2023-02-08T01:12:04.248Z,13.93
2023-02-08T01:14:31.596Z,15.10
2023-02-08T01:16:58.801Z,10.85
2023-02-08T01:19:26.047Z,12.88
2023-02-08T01:21:53.111Z,10.48
2023-02-08T01:24:20.212Z,11.90
2023-02-08T01:26:47.304Z,14.05
2023-02-08T01:29:15.688Z,14.32
2023-02-08T01:31:44.729Z,15.55
2023-02-08T01:34:12.830Z,14.02
2023-02-08T01:36:41.016Z,11.88
2023-02-08T01:39:10.869Z,13.40
2023-02-08T01:41:43.979Z,9.20
2023-02-08T01:44:13.749Z,14.40
2023-02-08T01:46:45.845Z,14.63
2023-02-08T01:49:26.909Z,11.90
2023-02-08T01:52:14.228Z,10.40
2023-02-08T01:55:34.281Z,10.50
2023-02-08T01:58:05.809Z,11.80
2023-02-08T02:00:33.155Z,11.68
2023-02-08T02:03:01.881Z,12.77
2023-02-08T02:05:41.359Z,12.23
2023-02-08T02:08:10.870Z,10.57
2023-02-08T02:10:40.650Z,11.45
2023-02-08T02:13:20.387Z,12.65
2023-02-08T02:15:48.950Z,14.13
2023-02-08T02:18:26.561Z,14.85
2023-02-08T02:21:19.105Z,13.60
2023-02-08T02:24:14.657Z,10.00
2023-02-08T02:26:59.988Z,12.60
2023-02-08T02:30:22.892Z,9.88
2023-02-08T02:33:05.443Z,11.73
2023-02-08T02:36:34.486Z,10.05
2023-02-08T02:39:33.612Z,13.15
2023-02-08T02:45:44.114Z,12.35
2023-02-08T02:48:42.952Z,11.18
2023-02-08T02:51:41.004Z,10.07
2023-02-08T02:54:17.382Z,12.80
2023-02-08T02:56:52.600Z,12.68
2023-02-08T02:59:26.618Z,11.60
2023-02-08T03:01:56.958Z,15.52
2023-02-08T03:04:39.851Z,12.75
2023-02-08T03:07:21.789Z,10.77
2023-02-08T03:10:29.599Z,13.38
2023-02-08T03:13:36.174Z,13.82
2023-02-08T03:29:20.735Z,15.27
2023-02-08T03:32:00.378Z,11.50
2023-02-08T03:34:49.098Z,11.18
2023-02-08T03:38:02.567Z,12.73
2023-02-08T03:40:41.603Z,12.68
2023-02-08T03:43:17.649Z,14.60
2023-02-08T03:45:52.689Z,12.20
2023-02-08T03:48:22.085Z,13.77
2023-02-08T03:50:53.887Z,10.60
2023-02-08T03:53:23.677Z,13.02
2023-02-08T04:06:04.107Z,15.85
2023-02-08T04:08:31.454Z,12.05
2023-02-08T04:10:58.698Z,13.82
2023-02-08T04:13:25.766Z,12.75
2023-02-08T04:15:53.587Z,14.93
2023-02-08T04:18:23.168Z,12.63
2023-02-08T04:20:50.260Z,12.43
2023-02-08T04:23:18.011Z,12.35
2023-02-08T04:25:47.328Z,14.55
2023-02-08T04:28:15.259Z,11.30
2023-02-08T04:30:43.670Z,14.75
2023-02-08T04:33:13.224Z,15.52
2023-02-08T04:35:43.579Z,14.48
2023-02-08T04:38:14.527Z,12.45
2023-02-08T04:40:43.815Z,17.60
2023-02-08T04:43:11.758Z,15.40
2023-02-08T04:45:39.069Z,14.80
2023-02-08T04:48:08.179Z,14.75
2023-02-08T04:50:37.745Z,15.38
2023-02-08T04:53:05.426Z,15.02
2023-02-08T04:55:32.754Z,18.52
2023-02-08T04:58:01.378Z,17.15
2023-02-08T05:00:28.984Z,16.25
2023-02-08T05:02:57.928Z,17.48
2023-02-08T05:05:26.569Z,19.88
2023-02-08T05:07:55.950Z,14.88
2023-02-08T05:10:23.360Z,15.13
2023-02-08T05:12:50.606Z,15.80
2023-02-08T05:15:18.355Z,18.15
2023-02-08T05:17:45.448Z,13.20
2023-02-08T05:20:13.346Z,16.98
2023-02-08T05:22:40.732Z,15.30
2023-02-08T05:25:08.221Z,15.05
2023-02-08T05:27:36.087Z,13.40
2023-02-08T05:30:04.516Z,13.68
2023-02-08T05:32:31.501Z,14.10
2023-02-08T05:34:58.564Z,14.98
2023-02-08T05:37:25.705Z,15.18
2023-02-08T05:39:52.699Z,16.05
2023-02-08T05:42:19.819Z,18.45
2023-02-08T05:44:46.936Z,16.67
2023-02-08T05:47:15.247Z,14.55
2023-02-08T05:49:42.517Z,19.58
2023-02-08T05:52:16.829Z,11.45
2023-02-08T05:57:57.623Z,17.38
2023-02-08T06:00:27.240Z,15.82
2023-02-08T06:02:55.532Z,13.52
2023-02-08T06:05:23.144Z,13.68
2023-02-08T06:07:50.136Z,19.40
2023-02-08T06:10:17.178Z,16.35
2023-02-08T06:12:44.322Z,18.70
2023-02-08T06:15:11.400Z,19.42
2023-02-08T06:17:38.520Z,14.48
2023-02-08T06:20:06.709Z,13.20
2023-02-08T06:22:37.793Z,13.05
2023-02-08T06:25:05.598Z,16.02
2023-02-08T06:27:32.866Z,19.42
2023-02-08T06:30:03.001Z,14.05
2023-02-08T06:32:30.414Z,14.27
2023-02-08T06:35:02.040Z,14.18
2023-02-08T06:37:29.020Z,17.80
2023-02-08T06:39:56.081Z,13.82
2023-02-08T06:42:23.138Z,13.73
2023-02-08T06:44:55.120Z,13.00
2023-02-08T06:47:23.576Z,14.57
2023-02-08T06:49:51.029Z,17.13
2023-02-08T06:52:20.568Z,15.20
2023-02-08T06:54:47.742Z,13.63
2023-02-08T06:57:14.693Z,17.50
2023-02-08T06:59:42.401Z,14.70
2023-02-08T07:02:20.549Z,14.43
2023-02-08T07:04:48.067Z,14.63
2023-02-08T07:07:16.736Z,16.60
2023-02-08T07:09:43.911Z,15.55
2023-02-08T07:12:11.840Z,13.05
2023-02-08T07:14:43.639Z,15.35
2023-02-08T07:17:12.249Z,14.27
2023-02-08T07:19:40.230Z,15.23
2023-02-08T07:22:10.225Z,15.45
2023-02-08T07:24:40.694Z,15.57
2023-02-08T07:27:10.312Z,19.38
2023-02-08T07:29:39.061Z,12.85
2023-02-08T07:32:08.218Z,13.30
2023-02-08T07:34:38.476Z,13.50
2023-02-08T07:37:05.600Z,16.17
2023-02-08T07:39:32.750Z,20.67
2023-02-08T07:42:00.005Z,19.70
2023-02-08T07:44:31.559Z,17.30
2023-02-08T07:46:58.693Z,20.98
2023-02-08T07:49:25.665Z,15.15
2023-02-08T07:51:52.709Z,18.83
2023-02-08T07:54:19.755Z,18.17
2023-02-08T07:56:47.472Z,21.98
2023-02-08T07:59:19.991Z,21.20
2023-02-08T08:01:50.637Z,21.80
2023-02-08T08:04:20.014Z,23.88
2023-02-08T08:06:47.411Z,15.63
2023-02-08T08:09:15.421Z,14.75
2023-02-08T08:11:43.992Z,17.25
2023-02-08T08:14:16.054Z,20.23
2023-02-08T08:16:47.786Z,15.25
2023-02-08T08:19:15.429Z,15.20
2023-02-08T08:21:43.606Z,15.13
2023-02-08T08:24:24.769Z,13.90
2023-02-08T08:26:54.408Z,16.23
2023-02-08T08:29:24.016Z,16.90
2023-02-08T08:32:02.255Z,15.55
2023-02-08T08:34:36.860Z,13.88
2023-02-08T08:37:22.482Z,15.23
2023-02-08T08:40:26.197Z,16.80
2023-02-08T09:14:20.171Z,18.63
2023-02-08T09:16:53.399Z,19.00
2023-02-08T09:19:30.250Z,16.92
2023-02-08T09:22:01.970Z,23.83
2023-02-08T09:45:09.795Z,21.95
2023-02-08T09:48:17.758Z,14.90
2023-02-08T09:50:56.301Z,14.15
2023-02-08T09:53:37.264Z,9.90
2023-02-08T09:56:13.460Z,13.27
2023-02-08T09:58:44.470Z,12.10
2023-02-08T10:01:21.467Z,18.95
2023-02-08T10:06:39.040Z,8.55
2023-02-08T10:09:14.641Z,9.25
2023-02-08T10:15:21.934Z,13.50
2023-02-08T10:18:15.118Z,8.73
2023-02-08T10:21:18.311Z,8.70
2023-02-08T10:24:40.663Z,11.63
2023-02-08T10:27:21.721Z,11.13
2023-02-08T10:30:14.209Z,9.82
2023-02-08T10:33:27.569Z,10.40
2023-02-08T10:35:56.086Z,11.88
2023-02-08T10:38:45.373Z,11.77
2023-02-08T10:41:27.994Z,9.88
2023-02-08T10:44:58.385Z,8.63
2023-02-08T10:48:06.570Z,9.10
2023-02-08T10:50:52.944Z,10.32
2023-02-08T10:53:23.476Z,10.20
2023-02-08T10:56:00.059Z,11.05
2023-02-08T10:58:34.701Z,12.35
2023-02-08T11:01:08.743Z,7.85
2023-02-08T11:03:40.041Z,9.20
2023-02-08T11:06:27.533Z,7.28
2023-02-08T11:08:58.827Z,7.15
2023-02-08T11:11:50.393Z,9.88
2023-02-08T11:14:58.186Z,6.00
2023-02-08T11:17:37.059Z,6.35
2023-02-08T11:23:04.594Z,6.57
2023-02-08T11:25:44.253Z,6.10
2023-02-08T11:28:30.272Z,9.00
2023-02-08T11:31:24.543Z,6.30
2023-02-08T11:34:09.566Z,8.48
2023-02-08T11:36:45.371Z,5.97
2023-02-08T11:41:59.690Z,7.50
2023-02-08T11:47:35.695Z,5.00
2023-02-08T11:50:19.808Z,7.85
2023-02-08T11:53:35.359Z,5.40
2023-02-08T11:59:39.699Z,4.70
2023-02-08T12:06:07.580Z,7.55
2023-02-08T12:12:56.546Z,3.83
2023-02-08T12:16:15.936Z,4.43
2023-02-08T12:19:19.010Z,4.85
2023-02-08T12:22:59.769Z,2.75
2023-02-08T12:26:10.677Z,5.22
2023-02-08T12:29:49.477Z,2.92
2023-02-08T12:32:56.478Z,4.75
2023-02-08T12:36:03.112Z,1.95
2023-02-08T12:39:26.000Z,3.00
2023-02-08T12:42:24.342Z,3.42
2023-02-08T12:45:23.851Z,3.17
2023-02-08T12:48:53.943Z,4.10
2023-02-08T12:55:30.039Z,3.97
2023-02-08T12:58:48.424Z,3.25
2023-02-08T13:01:57.504Z,4.57
2023-02-08T13:04:33.565Z,1.80
2023-02-08T13:07:10.686Z,3.00
2023-02-08T13:10:02.468Z,3.28
2023-02-08T13:12:45.978Z,2.78
2023-02-08T13:15:37.756Z,2.63
2023-02-08T13:18:19.162Z,3.33
2023-02-08T13:21:02.223Z,4.45
2023-02-08T13:23:52.102Z,3.58
2023-02-08T13:26:26.626Z,2.45
2023-02-08T13:29:01.376Z,4.47
2023-02-08T13:31:40.080Z,3.50
2023-02-08T13:34:18.924Z,3.95
2023-02-08T13:36:59.820Z,2.55
2023-02-08T13:39:46.347Z,2.20
2023-02-08T13:42:31.428Z,2.30
2023-02-08T13:44:59.689Z,3.03
2023-02-08T13:47:34.692Z,5.65
2023-02-08T13:50:29.140Z,4.70
2023-02-08T13:52:56.529Z,3.22
2023-02-08T13:55:40.094Z,2.83
2023-02-08T13:58:16.149Z,6.60
2023-02-08T14:01:05.072Z,3.67
2023-02-08T14:03:35.285Z,6.22
2023-02-08T14:06:16.001Z,3.25
2023-02-08T14:09:25.430Z,3.72
2023-02-08T14:11:57.547Z,2.20
2023-02-08T14:14:33.547Z,3.25
2023-02-08T14:17:31.206Z,5.13
2023-02-08T14:20:08.104Z,3.17
2023-02-08T14:22:53.824Z,3.65
2023-02-08T14:25:26.415Z,5.30
2023-02-08T14:28:02.364Z,2.40
2023-02-08T14:30:33.263Z,4.90
2023-02-08T14:33:08.775Z,2.88
2023-02-08T14:35:40.595Z,3.72
2023-02-08T14:39:23.875Z,3.28
2023-02-08T14:41:54.997Z,5.72
2023-02-08T14:44:43.421Z,3.47
2023-02-08T14:47:25.899Z,4.18
2023-02-08T14:50:08.814Z,2.78
2023-02-08T14:52:44.054Z,2.80
2023-02-08T14:55:21.762Z,3.97
2023-02-08T14:57:49.821Z,3.30
2023-02-08T15:00:25.506Z,4.13
2023-02-08T15:02:56.734Z,5.90
2023-02-08T15:05:34.594Z,3.50
2023-02-08T15:08:05.192Z,6.55
2023-02-08T15:10:35.137Z,4.70
2023-02-08T15:13:07.608Z,7.82
2023-02-08T15:15:40.248Z,3.63
2023-02-08T15:18:28.899Z,3.53
2023-02-08T15:21:19.129Z,5.38
2023-02-08T15:24:15.083Z,5.20
2023-02-08T15:26:55.244Z,5.40
2023-02-08T15:29:42.841Z,5.93
2023-02-08T15:32:21.309Z,6.70
2023-02-08T15:35:06.342Z,6.05
2023-02-08T15:37:43.450Z,3.92
2023-02-08T15:40:35.670Z,3.50
2023-02-08T15:43:12.890Z,3.58
2023-02-08T15:45:42.765Z,5.60
2023-02-08T15:48:17.390Z,3.55
2023-02-08T15:50:55.240Z,3.78
2023-02-08T15:53:26.470Z,4.43
2023-02-08T15:56:12.956Z,3.60
2023-02-08T16:01:21.772Z,3.25
2023-02-08T16:03:57.398Z,5.03
2023-02-08T16:06:29.776Z,4.97
2023-02-08T16:09:08.315Z,8.35
2023-02-08T16:11:55.838Z,5.82
2023-02-08T16:14:28.616Z,5.05
2023-02-08T16:16:59.404Z,8.32
2023-02-08T16:19:30.454Z,7.75
2023-02-08T16:22:20.845Z,10.25
2023-02-08T16:24:50.761Z,8.27
2023-02-08T16:27:29.980Z,6.43
2023-02-08T16:29:57.632Z,7.28
2023-02-08T16:32:39.712Z,7.45
2023-02-08T16:35:27.355Z,6.57
2023-02-08T16:38:00.579Z,8.13
2023-02-08T16:40:41.789Z,9.50
2023-02-08T16:43:31.760Z,9.23
2023-02-08T16:46:11.123Z,8.57
2023-02-08T16:48:45.526Z,6.97
2023-02-08T16:51:24.300Z,6.20
2023-02-08T16:54:19.590Z,10.82
2023-02-08T17:08:46.964Z,7.45
2023-02-08T17:11:16.043Z,6.93
2023-02-08T17:13:43.269Z,8.63
2023-02-08T17:16:21.417Z,6.13
2023-02-08T17:18:49.394Z,11.18
2023-02-08T17:21:17.289Z,7.28
2023-02-08T17:23:45.289Z,7.35
2023-02-08T17:26:23.748Z,4.88
2023-02-08T17:28:50.998Z,8.82
2023-02-08T17:31:18.138Z,4.10
2023-02-08T17:33:45.389Z,7.25
2023-02-08T17:36:14.319Z,10.25
2023-02-08T17:38:44.623Z,5.78
2023-02-08T17:41:19.583Z,7.15
2023-02-08T17:43:52.084Z,6.27
2023-02-08T17:46:26.826Z,7.03
2023-02-08T17:48:54.437Z,8.70
2023-02-08T17:51:25.158Z,6.45
2023-02-08T17:53:53.638Z,6.22
2023-02-08T17:56:25.733Z,5.88
2023-02-08T17:58:55.364Z,5.88
2023-02-08T18:04:38.514Z,7.63
2023-02-08T18:07:05.687Z,4.25
2023-02-08T18:09:33.216Z,4.85
2023-02-08T18:12:00.848Z,9.05
2023-02-08T18:14:30.271Z,5.45
2023-02-08T18:16:58.600Z,5.82
2023-02-08T18:19:26.442Z,8.07
2023-02-08T18:21:53.797Z,5.53
2023-02-08T18:24:20.840Z,5.82
2023-02-08T18:26:48.434Z,5.13
2023-02-08T18:29:16.602Z,3.50
2023-02-08T18:31:44.623Z,6.05
2023-02-08T18:34:12.701Z,4.53
2023-02-08T18:36:39.868Z,8.65
2023-02-08T18:39:06.771Z,3.95
2023-02-08T18:41:34.176Z,3.58
2023-02-08T18:44:02.442Z,4.00
2023-02-08T18:46:29.849Z,3.97
2023-02-08T18:48:57.953Z,6.40
2023-02-08T18:51:26.658Z,2.95
2023-02-08T18:53:55.169Z,5.93
2023-02-08T18:56:25.384Z,5.47
2023-02-08T18:58:56.114Z,7.82
2023-02-08T19:01:24.730Z,7.85
2023-02-08T19:03:52.924Z,5.10
2023-02-08T19:06:26.556Z,4.75
2023-02-08T19:08:56.471Z,4.53
2023-02-08T19:11:27.300Z,8.00
2023-02-08T19:13:58.283Z,4.72
2023-02-08T19:16:27.643Z,4.60
2023-02-08T19:19:02.233Z,3.50
2023-02-08T19:21:30.955Z,5.40
2023-02-08T19:24:00.547Z,7.25
2023-02-08T19:26:35.414Z,4.00
2023-02-08T19:29:06.548Z,3.67
2023-02-08T19:31:37.416Z,4.82
2023-02-08T19:34:05.683Z,4.18
2023-02-08T19:36:57.481Z,5.03
2023-02-08T19:39:27.276Z,8.23
2023-02-08T19:41:54.975Z,5.38
2023-02-08T19:44:22.853Z,5.68
2023-02-08T19:46:54.876Z,4.55
2023-02-08T19:49:25.398Z,5.68
2023-02-08T19:51:52.575Z,4.47
2023-02-08T19:54:20.434Z,9.60
2023-02-08T19:56:50.276Z,3.92
2023-02-08T19:59:29.246Z,6.15
2023-02-08T20:01:56.705Z,4.82
2023-02-08T20:04:25.258Z,4.22
2023-02-08T20:06:54.004Z,4.22
2023-02-08T20:09:40.195Z,5.13
2023-02-08T20:12:08.294Z,6.20
2023-02-08T20:14:35.308Z,5.95
2023-02-08T20:17:03.579Z,5.30
2023-02-08T20:19:30.623Z,5.47
2023-02-08T20:21:59.209Z,4.65
2023-02-08T20:24:29.341Z,6.18
2023-02-08T20:26:56.673Z,8.50
2023-02-08T20:29:25.221Z,4.25
2023-02-08T20:31:58.962Z,6.82
2023-02-08T20:34:28.936Z,4.82
2023-02-08T20:37:08.005Z,4.07
2023-02-08T20:39:37.606Z,7.38
2023-02-08T20:42:05.246Z,8.77
2023-02-08T20:49:12.124Z,4.05
2023-02-08T20:51:42.296Z,7.43
2023-02-08T20:54:11.107Z,5.47
2023-02-08T20:56:39.913Z,9.48
2023-02-08T20:59:13.278Z,9.23
2023-02-08T21:01:41.761Z,10.10
2023-02-08T21:04:13.400Z,9.68
2023-02-08T21:06:52.347Z,7.53
2023-02-08T21:09:22.154Z,14.13
2023-02-08T21:29:52.875Z,9.95
2023-02-08T21:32:44.815Z,7.73
2023-02-08T21:35:32.242Z,7.78
2023-02-08T21:38:06.547Z,9.82
2023-02-08T21:40:45.465Z,7.95
2023-02-08T21:49:22.545Z,9.05
2023-02-08T21:52:36.779Z,8.38
2023-02-08T21:55:09.906Z,12.65
2023-02-08T21:57:42.800Z,8.10
2023-02-08T22:00:16.393Z,7.70
2023-02-08T22:03:08.389Z,8.40
2023-02-08T22:06:04.620Z,11.73
2023-02-08T22:09:04.779Z,6.97
2023-02-08T22:11:31.864Z,5.30
2023-02-08T22:13:59.288Z,12.82
2023-02-08T22:16:27.526Z,6.63
2023-02-08T22:18:57.462Z,6.22
2023-02-08T22:21:24.615Z,9.07
2023-02-08T22:27:31.380Z,11.88
2023-02-08T22:30:12.329Z,7.50
2023-02-08T22:32:45.247Z,9.98
2023-02-08T22:35:15.125Z,8.50
2023-02-08T22:37:53.124Z,8.68
2023-02-08T22:40:25.786Z,9.30
2023-02-08T22:42:55.878Z,10.52
2023-02-08T22:45:45.438Z,13.50
2023-02-08T22:48:20.959Z,13.40
2023-02-08T22:50:53.501Z,17.20
2023-02-08T22:53:21.978Z,14.15
2023-02-08T22:56:02.201Z,12.88
2023-02-08T22:58:32.537Z,8.95
2023-02-08T23:01:10.055Z,10.07
2023-02-08T23:03:37.408Z,7.68
2023-02-08T23:06:07.722Z,12.63
2023-02-08T23:08:35.968Z,9.63
2023-02-08T23:11:05.553Z,8.68
2023-02-08T23:13:33.842Z,6.40
2023-02-08T23:16:01.026Z,11.07
2023-02-08T23:18:28.013Z,8.75
2023-02-08T23:20:55.248Z,12.07
2023-02-08T23:23:22.598Z,9.43
2023-02-08T23:25:49.883Z,7.85
2023-02-08T23:28:17.056Z,10.60
2023-02-08T23:30:45.257Z,11.23
2023-02-08T23:33:12.337Z,9.32
2023-02-08T23:35:41.477Z,10.88
2023-02-08T23:38:09.477Z,8.88
2023-02-08T23:40:37.566Z,10.20
2023-02-08T23:43:07.381Z,9.50
2023-02-08T23:45:34.466Z,9.32
2023-02-08T23:48:08.582Z,14.32
2023-02-08T23:50:35.722Z,12.18
2023-02-08T23:53:02.799Z,11.98
2023-02-08T23:55:30.752Z,10.77
2023-02-08T23:57:57.786Z,11.55
